Crown Point, Indiana
Current Conditions -  °F | °C
As of 5:55 AM on Sunday 25 Jan 2015 (Local Time) from KIGQ Reporting Station
Haze Haze  
Wind Chill: 28°   Ceiling: 2300
Heat Index: 34°   Visibility: 5mi
Dew Point: 32°   Wind: 7mph
Humidity: 92%   Direction: 50°NE
Pressure: 29.69"   Gusts: NA
Location:  41.42°N, 87.36°W
Report Text: KIGQ 251155Z AUTO 05006KT 5SM BR SCT009 OVC023 01/00 A2969 RMK AO2 T00120001 10012 20001
Loading
Personal Weather Stations






























Interactive Weather Map New forecast layout! Learn more

10-Day Weather Forecast

Advertisements
Track Severe Weather on mobile